sensor_id;sensor_type;location;lat;lon;timestamp;P1;durP1;ratioP1;P2;durP2;ratioP2
13026;SDS011;6580;42.680;23.324;2022-10-31T00:01:09;4.83;;;3.87;;
13026;SDS011;6580;42.680;23.324;2022-10-31T00:03:38;5.10;;;4.50;;
13026;SDS011;6580;42.680;23.324;2022-10-31T00:06:06;5.73;;;4.10;;
13026;SDS011;6580;42.680;23.324;2022-10-31T00:08:34;6.57;;;4.30;;
13026;SDS011;6580;42.680;23.324;2022-10-31T00:11:01;5.17;;;4.40;;
13026;SDS011;6580;42.680;23.324;2022-10-31T00:13:28;5.23;;;4.00;;
13026;SDS011;6580;42.680;23.324;2022-10-31T00:15:56;4.63;;;3.97;;
13026;SDS011;6580;42.680;23.324;2022-10-31T00:18:23;4.37;;;3.97;;
13026;SDS011;6580;42.680;23.324;2022-10-31T00:20:57;5.17;;;3.73;;
13026;SDS011;6580;42.680;23.324;2022-10-31T00:23:27;4.33;;;3.87;;
13026;SDS011;6580;42.680;23.324;2022-10-31T00:25:53;6.00;;;4.30;;
13026;SDS011;6580;42.680;23.324;2022-10-31T00:28:21;4.25;;;3.85;;
13026;SDS011;6580;42.680;23.324;2022-10-31T00:30:48;4.60;;;4.07;;
13026;SDS011;6580;42.680;23.324;2022-10-31T00:33:16;5.00;;;4.50;;
13026;SDS011;6580;42.680;23.324;2022-10-31T00:35:48;4.80;;;4.27;;
13026;SDS011;6580;42.680;23.324;2022-10-31T00:38:16;4.53;;;4.13;;
13026;SDS011;6580;42.680;23.324;2022-10-31T00:40:45;5.97;;;4.00;;
13026;SDS011;6580;42.680;23.324;2022-10-31T00:43:11;5.23;;;4.10;;
13026;SDS011;6580;42.680;23.324;2022-10-31T00:45:39;5.37;;;4.10;;
13026;SDS011;6580;42.680;23.324;2022-10-31T00:48:07;5.23;;;4.03;;
13026;SDS011;6580;42.680;23.324;2022-10-31T00:50:35;4.90;;;4.00;;
13026;SDS011;6580;42.680;23.324;2022-10-31T00:53:02;4.23;;;3.83;;
13026;SDS011;6580;42.680;23.324;2022-10-31T00:55:29;5.20;;;4.70;;
13026;SDS011;6580;42.680;23.324;2022-10-31T00:57:58;5.53;;;4.07;;
13026;SDS011;6580;42.680;23.324;2022-10-31T01:00:26;5.77;;;4.40;;
13026;SDS011;6580;42.680;23.324;2022-10-31T01:02:53;4.83;;;4.27;;
13026;SDS011;6580;42.680;23.324;2022-10-31T01:05:21;5.20;;;4.17;;
13026;SDS011;6580;42.680;23.324;2022-10-31T01:07:52;4.23;;;3.80;;
13026;SDS011;6580;42.680;23.324;2022-10-31T01:10:19;5.03;;;4.53;;
13026;SDS011;6580;42.680;23.324;2022-10-31T01:12:47;4.97;;;3.80;;
13026;SDS011;6580;42.680;23.324;2022-10-31T01:15:16;6.07;;;4.50;;
13026;SDS011;6580;42.680;23.324;2022-10-31T01:17:45;5.00;;;4.03;;
13026;SDS011;6580;42.680;23.324;2022-10-31T01:20:14;5.03;;;4.50;;
13026;SDS011;6580;42.680;23.324;2022-10-31T01:22:44;6.77;;;4.77;;
13026;SDS011;6580;42.680;23.324;2022-10-31T01:25:14;5.73;;;4.77;;
13026;SDS011;6580;42.680;23.324;2022-10-31T01:27:42;6.67;;;4.53;;
13026;SDS011;6580;42.680;23.324;2022-10-31T01:30:10;5.70;;;4.73;;
13026;SDS011;6580;42.680;23.324;2022-10-31T01:32:41;7.07;;;4.53;;
13026;SDS011;6580;42.680;23.324;2022-10-31T01:35:08;4.33;;;3.90;;
13026;SDS011;6580;42.680;23.324;2022-10-31T01:37:35;4.47;;;3.97;;
13026;SDS011;6580;42.680;23.324;2022-10-31T01:40:08;5.43;;;4.27;;
13026;SDS011;6580;42.680;23.324;2022-10-31T01:42:39;5.37;;;4.27;;
13026;SDS011;6580;42.680;23.324;2022-10-31T01:45:09;5.50;;;4.13;;
13026;SDS011;6580;42.680;23.324;2022-10-31T01:47:39;5.23;;;4.70;;
13026;SDS011;6580;42.680;23.324;2022-10-31T01:50:11;4.30;;;3.90;;
13026;SDS011;6580;42.680;23.324;2022-10-31T01:52:42;5.57;;;4.80;;
13026;SDS011;6580;42.680;23.324;2022-10-31T01:55:12;5.97;;;4.67;;
13026;SDS011;6580;42.680;23.324;2022-10-31T01:57:45;4.70;;;4.20;;
13026;SDS011;6580;42.680;23.324;2022-10-31T02:00:15;6.67;;;4.67;;
13026;SDS011;6580;42.680;23.324;2022-10-31T02:02:44;5.20;;;4.60;;
13026;SDS011;6580;42.680;23.324;2022-10-31T02:05:14;6.20;;;5.25;;
13026;SDS011;6580;42.680;23.324;2022-10-31T02:07:45;5.67;;;4.87;;
13026;SDS011;6580;42.680;23.324;2022-10-31T02:10:19;8.80;;;5.10;;
13026;SDS011;6580;42.680;23.324;2022-10-31T02:12:51;6.17;;;4.90;;
13026;SDS011;6580;42.680;23.324;2022-10-31T02:15:22;7.43;;;5.00;;
13026;SDS011;6580;42.680;23.324;2022-10-31T02:17:51;7.00;;;5.23;;
13026;SDS011;6580;42.680;23.324;2022-10-31T02:20:19;7.37;;;5.67;;
13026;SDS011;6580;42.680;23.324;2022-10-31T02:22:53;6.40;;;5.07;;
13026;SDS011;6580;42.680;23.324;2022-10-31T02:28:46;7.73;;;5.70;;
13026;SDS011;6580;42.680;23.324;2022-10-31T02:31:29;6.30;;;5.70;;
13026;SDS011;6580;42.680;23.324;2022-10-31T02:34:05;8.63;;;7.10;;
13026;SDS011;6580;42.680;23.324;2022-10-31T02:36:43;6.93;;;6.30;;
13026;SDS011;6580;42.680;23.324;2022-10-31T02:39:21;8.20;;;6.37;;
13026;SDS011;6580;42.680;23.324;2022-10-31T02:41:52;7.67;;;6.93;;
13026;SDS011;6580;42.680;23.324;2022-10-31T02:44:30;8.33;;;7.23;;
13026;SDS011;6580;42.680;23.324;2022-10-31T02:47:05;8.63;;;6.93;;
13026;SDS011;6580;42.680;23.324;2022-10-31T02:49:38;7.87;;;6.93;;
13026;SDS011;6580;42.680;23.324;2022-10-31T02:52:18;8.23;;;7.07;;
13026;SDS011;6580;42.680;23.324;2022-10-31T02:54:47;8.63;;;7.77;;
13026;SDS011;6580;42.680;23.324;2022-10-31T02:57:15;10.07;;;7.33;;
13026;SDS011;6580;42.680;23.324;2022-10-31T02:59:46;9.50;;;7.37;;
13026;SDS011;6580;42.680;23.324;2022-10-31T03:02:25;9.90;;;7.30;;
13026;SDS011;6580;42.680;23.324;2022-10-31T03:05:09;8.57;;;7.40;;
13026;SDS011;6580;42.680;23.324;2022-10-31T03:07:46;8.40;;;7.10;;
13026;SDS011;6580;42.680;23.324;2022-10-31T03:10:20;8.63;;;7.37;;
13026;SDS011;6580;42.680;23.324;2022-10-31T03:12:59;9.70;;;7.47;;
13026;SDS011;6580;42.680;23.324;2022-10-31T03:15:34;9.63;;;7.43;;
13026;SDS011;6580;42.680;23.324;2022-10-31T03:18:07;9.00;;;7.20;;
13026;SDS011;6580;42.680;23.324;2022-10-31T03:20:36;8.00;;;7.20;;
13026;SDS011;6580;42.680;23.324;2022-10-31T03:23:10;9.33;;;7.60;;
13026;SDS011;6580;42.680;23.324;2022-10-31T03:25:40;8.13;;;7.40;;
13026;SDS011;6580;42.680;23.324;2022-10-31T03:28:10;9.27;;;7.23;;
13026;SDS011;6580;42.680;23.324;2022-10-31T03:30:39;8.83;;;7.93;;
13026;SDS011;6580;42.680;23.324;2022-10-31T03:33:11;11.33;;;8.03;;
13026;SDS011;6580;42.680;23.324;2022-10-31T03:35:44;9.63;;;6.93;;
13026;SDS011;6580;42.680;23.324;2022-10-31T03:38:14;9.10;;;7.80;;
13026;SDS011;6580;42.680;23.324;2022-10-31T03:40:43;8.83;;;7.07;;
13026;SDS011;6580;42.680;23.324;2022-10-31T03:43:16;8.73;;;7.50;;
13026;SDS011;6580;42.680;23.324;2022-10-31T03:45:53;9.73;;;7.43;;
13026;SDS011;6580;42.680;23.324;2022-10-31T03:48:31;10.23;;;8.00;;
13026;SDS011;6580;42.680;23.324;2022-10-31T03:51:03;8.70;;;7.70;;
13026;SDS011;6580;42.680;23.324;2022-10-31T03:53:39;8.37;;;7.50;;
13026;SDS011;6580;42.680;23.324;2022-10-31T03:56:12;10.53;;;8.27;;
13026;SDS011;6580;42.680;23.324;2022-10-31T03:58:47;9.73;;;7.47;;
13026;SDS011;6580;42.680;23.324;2022-10-31T04:01:19;8.83;;;7.73;;
13026;SDS011;6580;42.680;23.324;2022-10-31T04:03:50;9.23;;;7.60;;
13026;SDS011;6580;42.680;23.324;2022-10-31T04:06:19;8.67;;;7.40;;
13026;SDS011;6580;42.680;23.324;2022-10-31T04:08:56;8.07;;;7.13;;
13026;SDS011;6580;42.680;23.324;2022-10-31T04:11:28;9.40;;;6.40;;
13026;SDS011;6580;42.680;23.324;2022-10-31T04:14:01;8.03;;;7.23;;
13026;SDS011;6580;42.680;23.324;2022-10-31T04:16:31;8.87;;;7.27;;
13026;SDS011;6580;42.680;23.324;2022-10-31T04:19:02;9.53;;;7.70;;
13026;SDS011;6580;42.680;23.324;2022-10-31T04:21:30;10.47;;;7.83;;
13026;SDS011;6580;42.680;23.324;2022-10-31T04:23:57;10.57;;;7.60;;
13026;SDS011;6580;42.680;23.324;2022-10-31T04:26:26;10.00;;;8.13;;
13026;SDS011;6580;42.680;23.324;2022-10-31T04:28:53;9.80;;;7.73;;
13026;SDS011;6580;42.680;23.324;2022-10-31T04:31:20;9.40;;;8.40;;
13026;SDS011;6580;42.680;23.324;2022-10-31T04:33:49;11.10;;;8.00;;
13026;SDS011;6580;42.680;23.324;2022-10-31T04:36:25;10.17;;;8.47;;
13026;SDS011;6580;42.680;23.324;2022-10-31T04:38:52;10.60;;;9.60;;
13026;SDS011;6580;42.680;23.324;2022-10-31T04:41:20;10.50;;;8.80;;
13026;SDS011;6580;42.680;23.324;2022-10-31T04:43:47;9.70;;;8.80;;
13026;SDS011;6580;42.680;23.324;2022-10-31T04:46:18;10.40;;;9.07;;
13026;SDS011;6580;42.680;23.324;2022-10-31T04:48:46;10.93;;;8.87;;
13026;SDS011;6580;42.680;23.324;2022-10-31T04:51:16;12.80;;;8.83;;
13026;SDS011;6580;42.680;23.324;2022-10-31T04:53:44;8.87;;;7.97;;
13026;SDS011;6580;42.680;23.324;2022-10-31T04:56:11;10.33;;;9.27;;
13026;SDS011;6580;42.680;23.324;2022-10-31T04:58:38;11.03;;;8.50;;
13026;SDS011;6580;42.680;23.324;2022-10-31T05:01:05;9.93;;;8.70;;
13026;SDS011;6580;42.680;23.324;2022-10-31T05:03:32;10.47;;;8.57;;
13026;SDS011;6580;42.680;23.324;2022-10-31T05:06:04;12.80;;;9.00;;
13026;SDS011;6580;42.680;23.324;2022-10-31T05:08:34;10.43;;;9.43;;
13026;SDS011;6580;42.680;23.324;2022-10-31T05:11:04;15.50;;;11.53;;
13026;SDS011;6580;42.680;23.324;2022-10-31T05:13:31;10.53;;;9.17;;
13026;SDS011;6580;42.680;23.324;2022-10-31T05:16:00;14.40;;;8.57;;
13026;SDS011;6580;42.680;23.324;2022-10-31T05:18:28;10.70;;;9.57;;
13026;SDS011;6580;42.680;23.324;2022-10-31T05:20:55;14.03;;;10.57;;
13026;SDS011;6580;42.680;23.324;2022-10-31T05:23:23;10.20;;;8.80;;
13026;SDS011;6580;42.680;23.324;2022-10-31T05:25:52;13.27;;;9.77;;
13026;SDS011;6580;42.680;23.324;2022-10-31T05:28:19;11.47;;;9.40;;
13026;SDS011;6580;42.680;23.324;2022-10-31T05:30:46;11.63;;;9.57;;
13026;SDS011;6580;42.680;23.324;2022-10-31T05:33:13;10.50;;;8.70;;
13026;SDS011;6580;42.680;23.324;2022-10-31T05:35:39;10.90;;;9.63;;
13026;SDS011;6580;42.680;23.324;2022-10-31T05:38:06;14.57;;;10.17;;
13026;SDS011;6580;42.680;23.324;2022-10-31T05:40:33;13.47;;;9.57;;
13026;SDS011;6580;42.680;23.324;2022-10-31T05:43:02;12.33;;;9.57;;
13026;SDS011;6580;42.680;23.324;2022-10-31T05:45:29;14.23;;;10.83;;
13026;SDS011;6580;42.680;23.324;2022-10-31T05:47:56;11.60;;;9.83;;
13026;SDS011;6580;42.680;23.324;2022-10-31T05:50:25;12.77;;;10.07;;
13026;SDS011;6580;42.680;23.324;2022-10-31T05:52:57;11.70;;;10.07;;
13026;SDS011;6580;42.680;23.324;2022-10-31T05:55:26;12.03;;;9.77;;
13026;SDS011;6580;42.680;23.324;2022-10-31T05:57:58;13.53;;;10.53;;
13026;SDS011;6580;42.680;23.324;2022-10-31T06:00:27;14.40;;;11.07;;
13026;SDS011;6580;42.680;23.324;2022-10-31T06:02:57;12.80;;;9.90;;
13026;SDS011;6580;42.680;23.324;2022-10-31T06:05:25;14.77;;;10.17;;
13026;SDS011;6580;42.680;23.324;2022-10-31T06:07:51;12.60;;;10.70;;
13026;SDS011;6580;42.680;23.324;2022-10-31T06:10:18;14.87;;;11.80;;
13026;SDS011;6580;42.680;23.324;2022-10-31T06:12:46;15.20;;;10.63;;
13026;SDS011;6580;42.680;23.324;2022-10-31T06:15:13;17.30;;;11.63;;
13026;SDS011;6580;42.680;23.324;2022-10-31T06:17:41;14.10;;;11.00;;
13026;SDS011;6580;42.680;23.324;2022-10-31T06:20:09;16.90;;;12.30;;
13026;SDS011;6580;42.680;23.324;2022-10-31T06:22:36;13.27;;;11.97;;
13026;SDS011;6580;42.680;23.324;2022-10-31T06:25:04;13.47;;;11.50;;
13026;SDS011;6580;42.680;23.324;2022-10-31T06:27:31;17.03;;;11.80;;
13026;SDS011;6580;42.680;23.324;2022-10-31T06:29:58;12.20;;;10.37;;
13026;SDS011;6580;42.680;23.324;2022-10-31T06:32:30;13.20;;;10.67;;
13026;SDS011;6580;42.680;23.324;2022-10-31T06:34:58;18.57;;;10.57;;
13026;SDS011;6580;42.680;23.324;2022-10-31T06:37:26;12.93;;;10.97;;
13026;SDS011;6580;42.680;23.324;2022-10-31T06:39:55;14.80;;;10.70;;
13026;SDS011;6580;42.680;23.324;2022-10-31T06:42:26;12.80;;;10.53;;
13026;SDS011;6580;42.680;23.324;2022-10-31T06:44:53;10.47;;;9.33;;
13026;SDS011;6580;42.680;23.324;2022-10-31T06:47:19;12.20;;;10.23;;
13026;SDS011;6580;42.680;23.324;2022-10-31T06:49:46;10.87;;;9.83;;
13026;SDS011;6580;42.680;23.324;2022-10-31T06:52:14;12.03;;;10.33;;
13026;SDS011;6580;42.680;23.324;2022-10-31T06:54:45;11.93;;;10.73;;
13026;SDS011;6580;42.680;23.324;2022-10-31T06:57:11;13.53;;;11.67;;
13026;SDS011;6580;42.680;23.324;2022-10-31T06:59:38;12.37;;;10.97;;
13026;SDS011;6580;42.680;23.324;2022-10-31T07:02:07;16.03;;;11.37;;
13026;SDS011;6580;42.680;23.324;2022-10-31T07:04:35;13.80;;;11.63;;
13026;SDS011;6580;42.680;23.324;2022-10-31T07:07:02;13.07;;;11.57;;
13026;SDS011;6580;42.680;23.324;2022-10-31T07:09:32;13.20;;;11.80;;
13026;SDS011;6580;42.680;23.324;2022-10-31T07:11:59;14.57;;;12.03;;
13026;SDS011;6580;42.680;23.324;2022-10-31T07:14:26;14.23;;;12.73;;
13026;SDS011;6580;42.680;23.324;2022-10-31T07:16:53;15.43;;;12.20;;
13026;SDS011;6580;42.680;23.324;2022-10-31T07:19:20;18.77;;;12.60;;
13026;SDS011;6580;42.680;23.324;2022-10-31T07:21:47;14.30;;;12.80;;
13026;SDS011;6580;42.680;23.324;2022-10-31T07:24:14;18.60;;;13.17;;
13026;SDS011;6580;42.680;23.324;2022-10-31T07:26:42;13.50;;;12.10;;
13026;SDS011;6580;42.680;23.324;2022-10-31T07:29:11;17.83;;;14.30;;
13026;SDS011;6580;42.680;23.324;2022-10-31T07:31:37;15.03;;;13.20;;
13026;SDS011;6580;42.680;23.324;2022-10-31T07:34:07;14.23;;;12.73;;
13026;SDS011;6580;42.680;23.324;2022-10-31T07:36:34;14.47;;;12.83;;
13026;SDS011;6580;42.680;23.324;2022-10-31T07:39:01;14.60;;;13.10;;
13026;SDS011;6580;42.680;23.324;2022-10-31T07:41:28;16.37;;;13.83;;
13026;SDS011;6580;42.680;23.324;2022-10-31T07:43:57;17.40;;;12.87;;
13026;SDS011;6580;42.680;23.324;2022-10-31T07:46:26;15.97;;;14.10;;
13026;SDS011;6580;42.680;23.324;2022-10-31T07:48:53;17.13;;;14.10;;
13026;SDS011;6580;42.680;23.324;2022-10-31T07:51:20;15.52;;;13.93;;
13026;SDS011;6580;42.680;23.324;2022-10-31T07:53:48;15.33;;;13.73;;
13026;SDS011;6580;42.680;23.324;2022-10-31T07:56:17;15.23;;;13.67;;
13026;SDS011;6580;42.680;23.324;2022-10-31T07:58:44;15.00;;;13.17;;
13026;SDS011;6580;42.680;23.324;2022-10-31T08:01:12;17.10;;;14.43;;
13026;SDS011;6580;42.680;23.324;2022-10-31T08:03:40;16.20;;;13.57;;
13026;SDS011;6580;42.680;23.324;2022-10-31T08:06:07;14.97;;;13.47;;
13026;SDS011;6580;42.680;23.324;2022-10-31T08:08:34;20.27;;;14.57;;
13026;SDS011;6580;42.680;23.324;2022-10-31T08:11:02;15.05;;;13.45;;
13026;SDS011;6580;42.680;23.324;2022-10-31T08:13:29;17.03;;;13.57;;
13026;SDS011;6580;42.680;23.324;2022-10-31T08:15:57;17.92;;;14.55;;
13026;SDS011;6580;42.680;23.324;2022-10-31T08:18:30;20.43;;;15.83;;
13026;SDS011;6580;42.680;23.324;2022-10-31T08:20:57;16.35;;;14.43;;
13026;SDS011;6580;42.680;23.324;2022-10-31T08:23:24;16.17;;;14.43;;
13026;SDS011;6580;42.680;23.324;2022-10-31T08:25:57;19.38;;;14.88;;
13026;SDS011;6580;42.680;23.324;2022-10-31T08:28:24;20.65;;;14.55;;
13026;SDS011;6580;42.680;23.324;2022-10-31T08:30:51;16.75;;;14.10;;
13026;SDS011;6580;42.680;23.324;2022-10-31T08:33:18;15.27;;;13.68;;
13026;SDS011;6580;42.680;23.324;2022-10-31T08:35:46;20.80;;;14.15;;
13026;SDS011;6580;42.680;23.324;2022-10-31T08:38:14;18.77;;;14.80;;
13026;SDS011;6580;42.680;23.324;2022-10-31T08:40:41;16.42;;;13.77;;
13026;SDS011;6580;42.680;23.324;2022-10-31T08:43:10;16.88;;;13.88;;
13026;SDS011;6580;42.680;23.324;2022-10-31T08:45:38;17.15;;;13.52;;
13026;SDS011;6580;42.680;23.324;2022-10-31T08:48:08;16.40;;;13.25;;
13026;SDS011;6580;42.680;23.324;2022-10-31T08:50:36;15.77;;;13.30;;
13026;SDS011;6580;42.680;23.324;2022-10-31T08:53:05;15.65;;;13.32;;
13026;SDS011;6580;42.680;23.324;2022-10-31T08:55:33;19.33;;;14.48;;
13026;SDS011;6580;42.680;23.324;2022-10-31T08:58:01;16.83;;;14.35;;
13026;SDS011;6580;42.680;23.324;2022-10-31T09:00:29;15.77;;;13.23;;
13026;SDS011;6580;42.680;23.324;2022-10-31T09:02:57;20.27;;;12.68;;
13026;SDS011;6580;42.680;23.324;2022-10-31T09:05:27;14.88;;;12.75;;
13026;SDS011;6580;42.680;23.324;2022-10-31T09:07:55;14.68;;;13.15;;
13026;SDS011;6580;42.680;23.324;2022-10-31T09:10:25;14.70;;;12.32;;
13026;SDS011;6580;42.680;23.324;2022-10-31T09:12:56;14.38;;;12.55;;
13026;SDS011;6580;42.680;23.324;2022-10-31T09:15:23;14.35;;;12.13;;
13026;SDS011;6580;42.680;23.324;2022-10-31T09:17:51;13.93;;;11.48;;
13026;SDS011;6580;42.680;23.324;2022-10-31T09:20:21;14.25;;;12.23;;
13026;SDS011;6580;42.680;23.324;2022-10-31T09:22:55;14.48;;;11.07;;
13026;SDS011;6580;42.680;23.324;2022-10-31T09:25:27;13.65;;;11.13;;
13026;SDS011;6580;42.680;23.324;2022-10-31T09:27:55;15.45;;;11.82;;
13026;SDS011;6580;42.680;23.324;2022-10-31T09:30:23;14.23;;;11.45;;
13026;SDS011;6580;42.680;23.324;2022-10-31T09:32:54;12.90;;;10.20;;
13026;SDS011;6580;42.680;23.324;2022-10-31T09:35:21;9.93;;;8.27;;
13026;SDS011;6580;42.680;23.324;2022-10-31T09:37:53;10.95;;;9.13;;
13026;SDS011;6580;42.680;23.324;2022-10-31T09:40:21;10.15;;;8.82;;
13026;SDS011;6580;42.680;23.324;2022-10-31T09:42:52;9.07;;;7.85;;
13026;SDS011;6580;42.680;23.324;2022-10-31T09:45:26;10.48;;;8.73;;
13026;SDS011;6580;42.680;23.324;2022-10-31T09:50:51;9.60;;;7.65;;
13026;SDS011;6580;42.680;23.324;2022-10-31T09:53:23;11.18;;;7.88;;
13026;SDS011;6580;42.680;23.324;2022-10-31T09:55:58;12.80;;;8.75;;
13026;SDS011;6580;42.680;23.324;2022-10-31T09:58:28;10.10;;;8.40;;
13026;SDS011;6580;42.680;23.324;2022-10-31T10:00:58;8.90;;;8.02;;
13026;SDS011;6580;42.680;23.324;2022-10-31T10:03:29;15.95;;;14.25;;
13026;SDS011;6580;42.680;23.324;2022-10-31T10:06:04;12.80;;;11.40;;
13026;SDS011;6580;42.680;23.324;2022-10-31T10:08:49;20.90;;;18.80;;
13026;SDS011;6580;42.680;23.324;2022-10-31T10:11:21;13.05;;;9.93;;
13026;SDS011;6580;42.680;23.324;2022-10-31T10:14:21;16.33;;;9.25;;
13026;SDS011;6580;42.680;23.324;2022-10-31T10:17:03;26.75;;;24.10;;
13026;SDS011;6580;42.680;23.324;2022-10-31T10:19:54;9.93;;;7.63;;
13026;SDS011;6580;42.680;23.324;2022-10-31T10:22:42;8.40;;;6.10;;
13026;SDS011;6580;42.680;23.324;2022-10-31T10:25:19;7.53;;;6.32;;
13026;SDS011;6580;42.680;23.324;2022-10-31T10:27:50;6.78;;;5.30;;
13026;SDS011;6580;42.680;23.324;2022-10-31T10:30:32;14.80;;;13.40;;
13026;SDS011;6580;42.680;23.324;2022-10-31T10:33:09;10.25;;;7.45;;
13026;SDS011;6580;42.680;23.324;2022-10-31T10:35:39;7.38;;;5.22;;
13026;SDS011;6580;42.680;23.324;2022-10-31T10:38:12;6.43;;;5.80;;
13026;SDS011;6580;42.680;23.324;2022-10-31T10:40:43;8.68;;;5.75;;
13026;SDS011;6580;42.680;23.324;2022-10-31T10:43:20;8.18;;;5.75;;
13026;SDS011;6580;42.680;23.324;2022-10-31T10:45:59;6.72;;;4.72;;
13026;SDS011;6580;42.680;23.324;2022-10-31T10:49:11;7.00;;;5.00;;
13026;SDS011;6580;42.680;23.324;2022-10-31T10:51:45;5.82;;;4.35;;
13026;SDS011;6580;42.680;23.324;2022-10-31T10:54:24;11.88;;;5.45;;
13026;SDS011;6580;42.680;23.324;2022-10-31T10:57:11;6.57;;;5.07;;
13026;SDS011;6580;42.680;23.324;2022-10-31T10:59:45;9.68;;;5.07;;
13026;SDS011;6580;42.680;23.324;2022-10-31T11:02:20;6.57;;;4.82;;
13026;SDS011;6580;42.680;23.324;2022-10-31T11:04:50;5.10;;;4.60;;
13026;SDS011;6580;42.680;23.324;2022-10-31T11:07:18;6.95;;;5.20;;
13026;SDS011;6580;42.680;23.324;2022-10-31T11:09:45;7.45;;;4.65;;
13026;SDS011;6580;42.680;23.324;2022-10-31T11:12:16;5.50;;;4.35;;
13026;SDS011;6580;42.680;23.324;2022-10-31T11:14:46;8.88;;;4.28;;
13026;SDS011;6580;42.680;23.324;2022-10-31T11:17:22;7.07;;;4.65;;
13026;SDS011;6580;42.680;23.324;2022-10-31T11:20:01;10.85;;;9.00;;
13026;SDS011;6580;42.680;23.324;2022-10-31T11:22:30;6.00;;;4.40;;
13026;SDS011;6580;42.680;23.324;2022-10-31T11:24:56;8.95;;;4.55;;
13026;SDS011;6580;42.680;23.324;2022-10-31T11:27:24;5.63;;;4.30;;
13026;SDS011;6580;42.680;23.324;2022-10-31T11:29:52;4.78;;;4.07;;
13026;SDS011;6580;42.680;23.324;2022-10-31T11:32:32;7.35;;;4.78;;
13026;SDS011;6580;42.680;23.324;2022-10-31T11:35:00;4.95;;;3.90;;
13026;SDS011;6580;42.680;23.324;2022-10-31T11:37:29;8.10;;;4.70;;
13026;SDS011;6580;42.680;23.324;2022-10-31T11:40:00;6.20;;;4.88;;
13026;SDS011;6580;42.680;23.324;2022-10-31T11:42:35;11.13;;;9.98;;
13026;SDS011;6580;42.680;23.324;2022-10-31T11:45:06;9.77;;;6.60;;
13026;SDS011;6580;42.680;23.324;2022-10-31T11:47:43;9.73;;;4.55;;
13026;SDS011;6580;42.680;23.324;2022-10-31T11:50:19;7.10;;;4.57;;
13026;SDS011;6580;42.680;23.324;2022-10-31T11:52:49;7.88;;;4.75;;
13026;SDS011;6580;42.680;23.324;2022-10-31T11:55:32;14.48;;;12.65;;
13026;SDS011;6580;42.680;23.324;2022-10-31T11:58:02;9.13;;;5.50;;
13026;SDS011;6580;42.680;23.324;2022-10-31T12:00:31;4.22;;;3.75;;
13026;SDS011;6580;42.680;23.324;2022-10-31T12:03:20;5.65;;;3.70;;
13026;SDS011;6580;42.680;23.324;2022-10-31T12:05:58;4.72;;;4.30;;
13026;SDS011;6580;42.680;23.324;2022-10-31T12:08:29;7.10;;;6.38;;
13026;SDS011;6580;42.680;23.324;2022-10-31T12:10:58;5.22;;;4.22;;
13026;SDS011;6580;42.680;23.324;2022-10-31T12:13:36;6.55;;;4.45;;
13026;SDS011;6580;42.680;23.324;2022-10-31T12:16:17;6.53;;;4.53;;
13026;SDS011;6580;42.680;23.324;2022-10-31T12:19:00;7.13;;;4.32;;
13026;SDS011;6580;42.680;23.324;2022-10-31T12:21:41;6.00;;;4.07;;
13026;SDS011;6580;42.680;23.324;2022-10-31T12:24:21;6.20;;;4.80;;
13026;SDS011;6580;42.680;23.324;2022-10-31T12:27:00;9.27;;;5.15;;
13026;SDS011;6580;42.680;23.324;2022-10-31T12:29:50;5.90;;;4.00;;
13026;SDS011;6580;42.680;23.324;2022-10-31T12:32:38;6.03;;;4.43;;
13026;SDS011;6580;42.680;23.324;2022-10-31T12:38:30;5.10;;;4.18;;
13026;SDS011;6580;42.680;23.324;2022-10-31T12:41:14;6.63;;;3.70;;
13026;SDS011;6580;42.680;23.324;2022-10-31T12:43:51;6.45;;;4.22;;
13026;SDS011;6580;42.680;23.324;2022-10-31T12:49:36;6.47;;;4.10;;
13026;SDS011;6580;42.680;23.324;2022-10-31T12:55:09;7.93;;;5.28;;
13026;SDS011;6580;42.680;23.324;2022-10-31T12:57:48;5.93;;;4.53;;
13026;SDS011;6580;42.680;23.324;2022-10-31T13:00:19;6.45;;;4.30;;
13026;SDS011;6580;42.680;23.324;2022-10-31T13:02:48;7.20;;;4.80;;
13026;SDS011;6580;42.680;23.324;2022-10-31T13:05:23;7.47;;;4.68;;
13026;SDS011;6580;42.680;23.324;2022-10-31T13:07:56;8.77;;;5.45;;
13026;SDS011;6580;42.680;23.324;2022-10-31T13:10:27;6.93;;;4.90;;
13026;SDS011;6580;42.680;23.324;2022-10-31T13:13:02;12.07;;;4.82;;
13026;SDS011;6580;42.680;23.324;2022-10-31T13:15:45;7.60;;;5.20;;
13026;SDS011;6580;42.680;23.324;2022-10-31T13:18:19;8.52;;;7.13;;
13026;SDS011;6580;42.680;23.324;2022-10-31T13:20:51;11.82;;;9.95;;
13026;SDS011;6580;42.680;23.324;2022-10-31T13:23:24;26.20;;;23.80;;
13026;SDS011;6580;42.680;23.324;2022-10-31T13:25:54;7.05;;;5.72;;
13026;SDS011;6580;42.680;23.324;2022-10-31T13:28:24;5.68;;;4.20;;
13026;SDS011;6580;42.680;23.324;2022-10-31T13:31:02;8.23;;;4.43;;
13026;SDS011;6580;42.680;23.324;2022-10-31T13:33:31;6.78;;;4.55;;
13026;SDS011;6580;42.680;23.324;2022-10-31T13:36:07;7.10;;;5.15;;
13026;SDS011;6580;42.680;23.324;2022-10-31T13:38:51;6.40;;;4.93;;
13026;SDS011;6580;42.680;23.324;2022-10-31T13:41:27;6.95;;;4.28;;
13026;SDS011;6580;42.680;23.324;2022-10-31T13:44:05;7.65;;;5.15;;
13026;SDS011;6580;42.680;23.324;2022-10-31T13:46:41;9.63;;;5.85;;
13026;SDS011;6580;42.680;23.324;2022-10-31T13:49:23;6.05;;;4.57;;
13026;SDS011;6580;42.680;23.324;2022-10-31T13:52:05;9.32;;;4.38;;
13026;SDS011;6580;42.680;23.324;2022-10-31T13:54:42;6.75;;;4.05;;
13026;SDS011;6580;42.680;23.324;2022-10-31T13:57:16;9.43;;;6.38;;
13026;SDS011;6580;42.680;23.324;2022-10-31T13:59:49;6.72;;;5.10;;
13026;SDS011;6580;42.680;23.324;2022-10-31T14:02:19;14.23;;;7.25;;
13026;SDS011;6580;42.680;23.324;2022-10-31T14:04:52;20.80;;;9.57;;
13026;SDS011;6580;42.680;23.324;2022-10-31T14:07:24;7.72;;;4.32;;
13026;SDS011;6580;42.680;23.324;2022-10-31T14:09:56;14.52;;;6.40;;
13026;SDS011;6580;42.680;23.324;2022-10-31T14:12:27;5.60;;;4.90;;
13026;SDS011;6580;42.680;23.324;2022-10-31T14:14:58;15.20;;;6.93;;
13026;SDS011;6580;42.680;23.324;2022-10-31T14:17:31;8.10;;;4.38;;
13026;SDS011;6580;42.680;23.324;2022-10-31T14:20:25;7.07;;;4.20;;
13026;SDS011;6580;42.680;23.324;2022-10-31T14:23:10;9.18;;;4.65;;
13026;SDS011;6580;42.680;23.324;2022-10-31T14:25:40;8.00;;;4.25;;
13026;SDS011;6580;42.680;23.324;2022-10-31T14:28:18;7.63;;;5.90;;
13026;SDS011;6580;42.680;23.324;2022-10-31T14:30:53;6.40;;;4.82;;
13026;SDS011;6580;42.680;23.324;2022-10-31T14:33:22;10.45;;;5.72;;
13026;SDS011;6580;42.680;23.324;2022-10-31T14:35:54;7.93;;;4.85;;
13026;SDS011;6580;42.680;23.324;2022-10-31T14:38:30;6.63;;;4.25;;
13026;SDS011;6580;42.680;23.324;2022-10-31T14:41:15;10.18;;;4.28;;
13026;SDS011;6580;42.680;23.324;2022-10-31T14:43:53;12.52;;;6.85;;
13026;SDS011;6580;42.680;23.324;2022-10-31T14:46:47;16.00;;;7.40;;
13026;SDS011;6580;42.680;23.324;2022-10-31T14:49:23;13.65;;;7.25;;
13026;SDS011;6580;42.680;23.324;2022-10-31T14:52:05;18.50;;;7.72;;
13026;SDS011;6580;42.680;23.324;2022-10-31T14:54:35;17.13;;;7.88;;
13026;SDS011;6580;42.680;23.324;2022-10-31T14:57:12;18.95;;;7.38;;
13026;SDS011;6580;42.680;23.324;2022-10-31T14:59:44;18.92;;;9.63;;
13026;SDS011;6580;42.680;23.324;2022-10-31T15:02:15;19.05;;;11.48;;
13026;SDS011;6580;42.680;23.324;2022-10-31T15:04:46;22.20;;;9.73;;
13026;SDS011;6580;42.680;23.324;2022-10-31T15:07:14;17.38;;;7.35;;
13026;SDS011;6580;42.680;23.324;2022-10-31T15:09:54;15.90;;;6.22;;
13026;SDS011;6580;42.680;23.324;2022-10-31T15:12:27;13.40;;;7.50;;
13026;SDS011;6580;42.680;23.324;2022-10-31T15:14:55;18.83;;;7.63;;
13026;SDS011;6580;42.680;23.324;2022-10-31T15:17:23;11.77;;;6.40;;
13026;SDS011;6580;42.680;23.324;2022-10-31T15:19:51;15.85;;;6.50;;